To NAV CANADA Home Page Login to a new session Search on AWWS site Feedback and Comments Disclaimer Vers la page française équivalente Tips FAQ What's new on the site To the Forecasts and Observations / NOTAM section To "File a Flight Plan" website Publications and other links Update of the User's profile FIC Telephone Numbers My Weather Data Folder Route Weather Data Regional Weather Data Local Weather Data To the Forecasts and Observations / NOTAM section
Request Generated 03/27/2015 at 15:36:27 UTC . Weather information available at that time is displayed.

METAR/TAF

OTTAWA/GATINEAU/QC    

METAR CYND 271500Z 34010G15KT 15SM BKN035 M04/M11 A2985 RMK SC7
SLP111=
METAR CYND 271400Z 34009G17KT 15SM BKN030 M04/M09 A2984 RMK SC7
SLP108=
SPECI CYND 271340Z 34011G17KT 15SM FEW012 OVC030 M04/M09 A2983 RMK
SC2SC6 SLP106=
METAR CYND 271300Z 33013KT 3SM -SN SCT012 OVC030 M04/M09 A2983 RMK
SC4SC4 SLP103=

TAF CYND 271238Z 2713/2801 33012KT 11/2SM -SN OVC015 TEMPO 2713/2714
6SM -SN OVC030
FM271400 33012KT 6SM -SN SCT015 OVC030 TEMPO 2714/2716 11/2SM -SN
OVC015
FM271600 33012KT P6SM OVC030 TEMPO 2716/2720 5SM -SN OVC020
FM272000 33010KT P6SM FEW025 BKN040
RMK NXT FCST BY 271800Z=
Your time UTC time
Weather data provided by Environment Canada and NAV CANADA